createdAt,value
2019-03-18T00:04:08.080Z,1009.66
2019-03-18T00:09:07.867Z,1009.64
2019-03-18T00:14:07.364Z,1009.64
2019-03-18T00:19:07.854Z,1009.67
2019-03-18T00:24:07.277Z,1009.74
2019-03-18T00:28:07.070Z,1009.81
2019-03-18T00:33:07.393Z,1009.86
2019-03-18T00:38:06.888Z,1009.76
2019-03-18T00:43:06.897Z,1009.93
2019-03-18T00:48:07.067Z,1009.99
2019-03-18T00:53:06.601Z,1010.04
2019-03-18T00:58:07.192Z,1010.13
2019-03-18T01:03:07.572Z,1010.22
2019-03-18T01:07:07.263Z,1010.3
2019-03-18T01:12:07.367Z,1010.26
2019-03-18T01:17:07.249Z,1010.27
2019-03-18T01:22:06.843Z,1010.29
2019-03-18T01:27:07.381Z,1010.28
2019-03-18T01:32:06.613Z,1010.29
2019-03-18T01:37:07.158Z,1010.35
2019-03-18T01:41:06.888Z,1010.26
2019-03-18T01:46:07.026Z,1010.38
2019-03-18T01:51:06.645Z,1010.37
2019-03-18T01:56:07.127Z,1010.26
2019-03-18T02:01:07.219Z,1010.3
2019-03-18T02:06:10.530Z,1010.34
2019-03-18T02:11:07.825Z,1010.33
2019-03-18T02:16:06.988Z,1010.48
2019-03-18T02:20:06.782Z,1010.46
2019-03-18T02:25:07.413Z,1010.5
2019-03-18T02:30:08.441Z,1010.55
2019-03-18T02:35:07.213Z,1010.51
2019-03-18T02:40:07.156Z,1010.59
2019-03-18T02:45:08.972Z,1010.61
2019-03-18T02:50:07.017Z,1010.63
2019-03-18T02:54:07.810Z,1010.54
2019-03-18T02:59:07.284Z,1010.52
2019-03-18T03:04:07.138Z,1010.66
2019-03-18T03:09:07.937Z,1010.66
2019-03-18T03:14:07.449Z,1010.68
2019-03-18T03:19:07.542Z,1010.72
2019-03-18T03:23:07.339Z,1010.74
2019-03-18T03:28:08.385Z,1010.76
2019-03-18T03:33:07.407Z,1010.86
2019-03-18T03:38:07.967Z,1010.84
2019-03-18T03:43:07.837Z,1010.92
2019-03-18T03:48:07.286Z,1010.91
2019-03-18T03:53:07.826Z,1011.06
2019-03-18T03:58:07.424Z,1011.04
2019-03-18T04:02:07.939Z,1011.01
2019-03-18T04:07:07.725Z,1011.01
2019-03-18T04:12:07.448Z,1011.11
2019-03-18T04:17:07.591Z,1011.15
2019-03-18T04:22:07.147Z,1011.13
2019-03-18T04:27:07.631Z,1011.35
2019-03-18T04:31:07.216Z,1011.38
2019-03-18T04:32:08.046Z,1011.38
2019-03-18T04:36:06.922Z,1011.43
2019-03-18T04:41:06.972Z,1011.34
2019-03-18T04:46:07.260Z,1011.31
2019-03-18T04:51:06.884Z,1011.44
2019-03-18T04:56:07.428Z,1011.47
2019-03-18T05:01:07.677Z,1011.4
2019-03-18T05:06:07.273Z,1011.43
2019-03-18T05:10:07.319Z,1011.47
2019-03-18T05:15:08.093Z,1011.59
2019-03-18T05:20:07.021Z,1011.66
2019-03-18T05:25:08.341Z,1011.64
2019-03-18T05:30:09.002Z,1011.66
2019-03-18T05:35:07.415Z,1011.76
2019-03-18T05:40:08.101Z,1011.76
2019-03-18T05:44:08.921Z,1011.83
2019-03-18T05:49:07.397Z,1011.84
2019-03-18T05:54:07.093Z,1011.92
2019-03-18T05:59:07.397Z,1012.01
2019-03-18T06:04:07.817Z,1012.01
2019-03-18T06:09:07.712Z,1012.03
2019-03-18T06:14:07.324Z,1012.17
2019-03-18T06:18:07.016Z,1012.15
2019-03-18T06:23:07.323Z,1012.23
2019-03-18T06:28:07.889Z,1012.2
2019-03-18T06:33:07.528Z,1012.26
2019-03-18T06:38:07.992Z,1012.38
2019-03-18T06:43:07.873Z,1012.42
2019-03-18T06:48:10.124Z,1012.44
2019-03-18T06:53:07.561Z,1012.48
2019-03-18T06:57:07.453Z,1012.51
2019-03-18T07:02:08.003Z,1012.49
2019-03-18T07:07:07.411Z,1012.53
2019-03-18T07:12:07.381Z,1012.63
2019-03-18T07:17:06.515Z,1012.46
2019-03-18T07:22:07.068Z,1012.61
2019-03-18T07:26:06.843Z,1012.57
2019-03-18T07:31:07.135Z,1012.56
2019-03-18T07:36:06.721Z,1012.71
2019-03-18T07:41:06.711Z,1012.8
2019-03-18T07:46:06.911Z,1012.81
2019-03-18T07:51:07.444Z,1012.97
2019-03-18T07:55:07.168Z,1013.02
2019-03-18T08:00:09.317Z,1013.02
2019-03-18T08:05:06.759Z,1013.19
2019-03-18T08:10:06.949Z,1013.22
2019-03-18T08:15:08.571Z,1013.3
2019-03-18T08:20:07.294Z,1013.27
2019-03-18T08:25:06.627Z,1013.19
2019-03-18T08:30:08.470Z,1013.28
2019-03-18T08:34:07.253Z,1013.33
2019-03-18T08:39:08.029Z,1013.41
2019-03-18T08:44:07.366Z,1013.53
2019-03-18T08:49:07.307Z,1013.54
2019-03-18T08:54:07.699Z,1013.61
2019-03-18T08:59:07.130Z,1013.77
2019-03-18T09:03:07.677Z,1013.74
2019-03-18T09:08:07.167Z,1013.64
2019-03-18T09:13:07.060Z,1013.9
2019-03-18T09:18:07.222Z,1013.95
2019-03-18T09:23:07.749Z,1013.95
2019-03-18T09:28:07.246Z,1013.99
2019-03-18T09:33:07.575Z,1013.97
2019-03-18T09:38:06.960Z,1014.01
2019-03-18T09:42:07.757Z,1014.02
2019-03-18T09:47:06.778Z,1014.04
2019-03-18T09:52:07.329Z,1014.06
2019-03-18T09:57:07.776Z,1013.95
2019-03-18T10:02:07.458Z,1013.91
2019-03-18T10:07:06.932Z,1013.93
2019-03-18T10:11:07.758Z,1014.1
2019-03-18T10:16:07.330Z,1014.21
2019-03-18T10:21:06.818Z,1014.3
2019-03-18T10:26:07.159Z,1014.29
2019-03-18T10:31:07.380Z,1014.33
2019-03-18T10:36:06.774Z,1014.41
2019-03-18T10:41:07.642Z,1014.38
2019-03-18T10:46:07.007Z,1014.46
2019-03-18T10:50:07.062Z,1014.4
2019-03-18T10:55:06.565Z,1014.42
2019-03-18T11:00:09.293Z,1014.44
2019-03-18T11:05:08.888Z,1014.3
2019-03-18T11:10:06.907Z,1014.35
2019-03-18T11:15:08.703Z,1014.45
2019-03-18T11:20:07.585Z,1014.43
2019-03-18T11:24:06.675Z,1014.3
2019-03-18T11:29:07.011Z,1014.41
2019-03-18T11:34:07.205Z,1014.45
2019-03-18T11:39:07.041Z,1014.48
2019-03-18T11:44:06.479Z,1014.38
2019-03-18T11:49:06.682Z,1014.45
2019-03-18T11:54:07.089Z,1014.42
2019-03-18T11:58:07.793Z,1014.57
2019-03-18T12:03:07.250Z,1014.67
2019-03-18T12:08:06.677Z,1014.76
2019-03-18T12:13:06.525Z,1014.78
2019-03-18T12:18:07.290Z,1014.67
2019-03-18T12:23:06.649Z,1014.67
2019-03-18T12:27:07.286Z,1014.63
2019-03-18T12:32:07.700Z,1014.63
2019-03-18T12:37:07.054Z,1014.58
2019-03-18T12:42:07.015Z,1014.65
2019-03-18T12:47:07.264Z,1014.72
2019-03-18T12:52:07.717Z,1014.78
2019-03-18T12:56:07.041Z,1014.71
2019-03-18T13:01:13.576Z,1014.69
2019-03-18T13:06:07.031Z,1014.62
2019-03-18T13:11:06.940Z,1014.57
2019-03-18T13:16:07.314Z,1014.63
2019-03-18T13:21:08.977Z,1014.66
2019-03-18T13:26:07.285Z,1014.63
2019-03-18T13:31:07.525Z,1014.79
2019-03-18T13:35:06.788Z,1014.78
2019-03-18T13:40:07.703Z,1014.7
2019-03-18T13:45:08.193Z,1014.8
2019-03-18T13:50:07.502Z,1014.68
2019-03-18T13:55:07.049Z,1014.82
2019-03-18T14:00:09.226Z,1014.7
2019-03-18T14:05:07.383Z,1014.81
2019-03-18T14:09:07.060Z,1014.95
2019-03-18T14:14:07.523Z,1015.38
2019-03-18T14:19:07.285Z,1015.3
2019-03-18T14:24:07.757Z,1015.22
2019-03-18T14:29:07.250Z,1015.19
2019-03-18T14:34:07.381Z,1015.28
2019-03-18T14:39:07.274Z,1015.36
2019-03-18T14:43:07.658Z,1015.5
2019-03-18T14:48:07.622Z,1015.42
2019-03-18T14:53:07.089Z,1015.45
2019-03-18T14:58:07.614Z,1015.39
2019-03-18T15:03:07.407Z,1015.49
2019-03-18T15:08:06.881Z,1015.44
2019-03-18T15:12:07.652Z,1015.49
2019-03-18T15:17:07.797Z,1015.56
2019-03-18T15:22:07.241Z,1015.65
2019-03-18T15:27:07.654Z,1015.62
2019-03-18T15:32:07.732Z,1015.74
2019-03-18T15:37:07.146Z,1015.83
2019-03-18T15:42:06.478Z,1015.98
2019-03-18T15:46:07.524Z,1015.97
2019-03-18T15:51:06.816Z,1015.97
2019-03-18T15:56:07.600Z,1016.03
2019-03-18T16:01:07.398Z,1016.14
2019-03-18T16:06:06.904Z,1016.18
2019-03-18T16:11:06.992Z,1016.23
2019-03-18T16:15:08.981Z,1016.4
2019-03-18T16:20:07.396Z,1016.36
2019-03-18T16:25:06.920Z,1016.39
2019-03-18T16:30:08.543Z,1016.42
2019-03-18T16:35:07.507Z,1016.67
2019-03-18T16:40:07.464Z,1016.81
2019-03-18T16:45:08.545Z,1016.99
2019-03-18T16:49:07.280Z,1017.18
2019-03-18T16:54:07.221Z,1017.33
2019-03-18T16:59:06.935Z,1017.33
2019-03-18T17:04:07.822Z,1017.28
2019-03-18T17:09:07.685Z,1017.31
2019-03-18T17:14:07.271Z,1017.38
2019-03-18T17:18:08.403Z,1017.43
2019-03-18T17:23:06.990Z,1017.5
2019-03-18T17:28:07.793Z,1017.57
2019-03-18T17:33:06.985Z,1017.67
2019-03-18T17:38:07.053Z,1017.85
2019-03-18T17:43:06.794Z,1018
2019-03-18T17:47:07.967Z,1018.09
2019-03-18T17:52:06.498Z,1018.14
2019-03-18T17:57:11.404Z,1018.28
2019-03-18T18:02:06.683Z,1018.3
2019-03-18T18:07:07.261Z,1018.49
2019-03-18T18:12:07.250Z,1018.69
2019-03-18T18:17:07.356Z,1018.68
2019-03-18T18:21:06.983Z,1018.77
2019-03-18T18:26:07.450Z,1018.81
2019-03-18T18:31:07.770Z,1018.98
2019-03-18T18:36:07.177Z,1019.08
2019-03-18T18:41:06.889Z,1019.19
2019-03-18T18:46:06.918Z,1019.36
2019-03-18T18:51:07.897Z,1019.4
2019-03-18T18:55:07.458Z,1019.46
2019-03-18T19:05:07.235Z,1019.46
2019-03-18T19:10:07.001Z,1019.43
2019-03-18T19:15:08.913Z,1019.58
2019-03-18T19:20:07.588Z,1019.55
2019-03-18T19:25:07.116Z,1019.61
2019-03-18T19:29:08.207Z,1019.71
2019-03-18T19:34:07.662Z,1019.74
2019-03-18T19:39:07.698Z,1019.84
2019-03-18T19:44:07.150Z,1019.84
2019-03-18T19:49:07.394Z,1019.88
2019-03-18T19:54:06.906Z,1019.92
2019-03-18T19:59:07.346Z,1020.03
2019-03-18T20:03:06.898Z,1020.06
2019-03-18T20:08:07.421Z,1020.16
2019-03-18T20:13:06.526Z,1020.26
2019-03-18T20:18:07.048Z,1020.2
2019-03-18T20:23:06.588Z,1020.27
2019-03-18T20:28:07.140Z,1020.28
2019-03-18T20:33:07.376Z,1020.34
2019-03-18T20:37:07.210Z,1020.47
2019-03-18T20:42:07.076Z,1020.45
2019-03-18T20:47:07.389Z,1020.55
2019-03-18T20:52:17.603Z,1020.56
2019-03-18T20:57:07.205Z,1020.65
2019-03-18T21:02:06.560Z,1020.65
2019-03-18T21:07:07.041Z,1020.74
2019-03-18T21:12:07.273Z,1020.76
2019-03-18T21:16:07.399Z,1020.86
2019-03-18T21:21:06.970Z,1020.94
2019-03-18T21:26:07.452Z,1020.97
2019-03-18T21:31:07.569Z,1021.08
2019-03-18T21:36:06.980Z,1021.07
2019-03-18T21:41:06.838Z,1021.18
2019-03-18T21:46:06.505Z,1021.23
2019-03-18T21:51:07.297Z,1021.33
2019-03-18T21:55:07.418Z,1021.33
2019-03-18T22:00:08.901Z,1021.31
2019-03-18T22:05:08.041Z,1021.49
2019-03-18T22:10:07.412Z,1021.57
2019-03-18T22:15:08.654Z,1021.53
2019-03-18T22:20:07.105Z,1021.58
2019-03-18T22:24:07.569Z,1021.65
2019-03-18T22:29:07.062Z,1021.74
2019-03-18T22:34:07.221Z,1021.71
2019-03-18T22:39:07.130Z,1021.73
2019-03-18T22:44:07.592Z,1021.72
2019-03-18T22:49:07.622Z,1021.74
2019-03-18T22:53:06.714Z,1021.85
2019-03-18T22:58:07.271Z,1021.83
2019-03-18T23:03:07.562Z,1021.8
2019-03-18T23:08:07.021Z,1021.72
2019-03-18T23:13:06.714Z,1021.81
2019-03-18T23:18:07.264Z,1021.88
2019-03-18T23:23:06.807Z,1021.81
2019-03-18T23:28:07.281Z,1021.84
2019-03-18T23:32:06.873Z,1021.86
2019-03-18T23:37:07.430Z,1022.05
2019-03-18T23:42:07.362Z,1022.1
2019-03-18T23:47:07.148Z,1022.18
2019-03-18T23:52:07.630Z,1022.23
2019-03-18T23:57:07.125Z,1022.28
